createdAt,value
2022-11-05T00:01:49.368Z,6.22
2022-11-05T00:04:36.382Z,7.82
2022-11-05T00:07:35.618Z,9.18
2022-11-05T00:10:04.788Z,8.77
2022-11-05T00:12:51.854Z,7.18
2022-11-05T00:15:38.915Z,7.03
2022-11-05T00:18:06.039Z,5.82
2022-11-05T00:20:33.198Z,8.33
2022-11-05T00:23:20.971Z,6.80
2022-11-05T00:26:04.789Z,7.40
2022-11-05T00:28:32.340Z,11.02
2022-11-05T00:31:01.285Z,9.43
2022-11-05T00:33:28.362Z,8.43
2022-11-05T00:35:55.859Z,9.80
2022-11-05T00:38:23.095Z,7.43
2022-11-05T00:40:50.135Z,6.53
2022-11-05T00:43:37.194Z,5.85
2022-11-05T00:46:03.883Z,7.80
2022-11-05T00:48:50.850Z,6.55
2022-11-05T00:51:17.960Z,8.15
2022-11-05T00:53:46.763Z,7.70
2022-11-05T00:56:13.999Z,5.90
2022-11-05T00:58:41.085Z,6.73
2022-11-05T01:01:08.177Z,5.88
2022-11-05T01:03:36.807Z,6.35
2022-11-05T01:06:08.932Z,6.57
2022-11-05T01:08:36.268Z,7.10
2022-11-05T01:11:08.934Z,7.75
2022-11-05T01:13:35.995Z,8.30
2022-11-05T01:16:07.640Z,6.72
2022-11-05T01:18:34.708Z,6.38
2022-11-05T01:21:10.005Z,8.20
2022-11-05T01:23:37.103Z,8.50
2022-11-05T01:26:04.124Z,7.07
2022-11-05T01:28:31.307Z,7.10
2022-11-05T01:30:58.381Z,8.00
2022-11-05T01:33:25.762Z,11.55
2022-11-05T01:35:53.360Z,9.05
2022-11-05T01:38:20.439Z,10.93
2022-11-05T01:40:47.545Z,8.77
2022-11-05T01:43:16.599Z,7.18
2022-11-05T01:45:44.119Z,8.38
2022-11-05T01:48:15.701Z,8.17
2022-11-05T01:50:47.369Z,7.10
2022-11-05T01:53:14.406Z,8.30
2022-11-05T01:55:43.836Z,7.80
2022-11-05T01:58:13.293Z,9.20
2022-11-05T02:00:41.783Z,8.05
2022-11-05T02:03:09.700Z,9.93
2022-11-05T02:05:37.221Z,7.22
2022-11-05T02:08:04.358Z,7.63
2022-11-05T02:10:31.505Z,7.78
2022-11-05T02:12:58.561Z,9.23
2022-11-05T02:15:33.749Z,8.45
2022-11-05T02:18:09.633Z,9.65
2022-11-05T02:20:42.069Z,6.40
2022-11-05T02:23:15.333Z,7.85
2022-11-05T02:26:02.369Z,7.60
2022-11-05T02:28:49.340Z,6.63
2022-11-05T02:31:36.334Z,6.10
2022-11-05T02:34:11.172Z,7.65
2022-11-05T02:36:58.129Z,7.80
2022-11-05T02:39:25.154Z,9.13
2022-11-05T02:41:52.220Z,7.23
2022-11-05T02:44:20.309Z,7.53
2022-11-05T02:46:57.667Z,6.28
2022-11-05T02:49:32.120Z,8.33
2022-11-05T02:52:01.924Z,7.55
2022-11-05T02:54:32.287Z,7.10
2022-11-05T02:57:00.564Z,6.65
2022-11-05T02:59:27.616Z,10.73
2022-11-05T03:01:55.110Z,8.63
2022-11-05T03:04:23.096Z,9.45
2022-11-05T03:07:05.827Z,9.93
2022-11-05T03:09:32.851Z,7.47
2022-11-05T03:12:13.021Z,7.13
2022-11-05T03:14:44.423Z,7.03
2022-11-05T03:17:18.991Z,7.85
2022-11-05T03:19:50.235Z,7.30
2022-11-05T03:22:26.615Z,7.70
2022-11-05T03:24:56.390Z,8.57
2022-11-05T03:27:27.283Z,7.95
2022-11-05T03:29:57.197Z,7.55
2022-11-05T03:32:25.274Z,9.93
2022-11-05T03:34:55.307Z,7.73
2022-11-05T03:37:23.347Z,8.18
2022-11-05T03:39:52.793Z,6.53
2022-11-05T03:42:22.119Z,7.22
2022-11-05T03:44:51.435Z,6.40
2022-11-05T03:47:20.595Z,7.00
2022-11-05T03:49:53.024Z,7.30
2022-11-05T03:52:21.339Z,8.50
2022-11-05T03:54:48.459Z,8.70
2022-11-05T03:57:19.263Z,8.15
2022-11-05T03:59:47.675Z,8.83
2022-11-05T04:02:15.580Z,8.52
2022-11-05T04:04:42.809Z,9.40
2022-11-05T04:07:30.721Z,9.55
2022-11-05T04:10:18.075Z,9.57
2022-11-05T04:13:05.263Z,8.90
2022-11-05T04:15:52.254Z,8.45
2022-11-05T04:18:19.578Z,10.63
2022-11-05T04:21:06.662Z,8.85
2022-11-05T04:23:53.630Z,13.57
2022-11-05T04:26:23.187Z,12.60
2022-11-05T04:29:10.832Z,13.32
2022-11-05T04:31:38.500Z,10.93
2022-11-05T04:34:05.595Z,9.13
2022-11-05T04:36:32.707Z,9.55
2022-11-05T04:38:59.777Z,8.65
2022-11-05T04:41:26.865Z,10.20
2022-11-05T04:43:53.905Z,10.73
2022-11-05T04:46:21.513Z,12.10
2022-11-05T04:48:48.616Z,11.48
2022-11-05T04:51:15.682Z,10.32
2022-11-05T04:53:42.702Z,10.63
2022-11-05T04:56:15.191Z,10.68
2022-11-05T04:58:42.889Z,10.85
2022-11-05T05:01:13.009Z,8.87
2022-11-05T05:03:40.147Z,9.40
2022-11-05T05:06:07.434Z,8.82
2022-11-05T05:08:34.654Z,7.63
2022-11-05T05:11:03.001Z,9.33
2022-11-05T05:13:30.038Z,8.82
2022-11-05T05:15:57.131Z,8.93
2022-11-05T05:18:26.622Z,8.93
2022-11-05T05:21:17.828Z,9.00
2022-11-05T05:23:45.314Z,9.23
2022-11-05T05:26:12.401Z,9.32
2022-11-05T05:28:39.457Z,11.98
2022-11-05T05:31:06.569Z,13.95
2022-11-05T05:33:33.642Z,13.90
2022-11-05T05:36:04.682Z,9.93
2022-11-05T05:38:35.622Z,9.60
2022-11-05T05:41:02.686Z,9.35
2022-11-05T05:43:30.814Z,10.80
2022-11-05T05:45:58.121Z,8.57
2022-11-05T05:48:25.278Z,8.35
2022-11-05T05:50:52.406Z,8.95
2022-11-05T05:53:19.473Z,8.60
2022-11-05T05:55:46.522Z,7.78
2022-11-05T05:58:13.625Z,7.82
2022-11-05T06:00:40.711Z,13.90
2022-11-05T06:03:07.876Z,17.73
2022-11-05T06:05:35.132Z,16.13
2022-11-05T06:08:02.250Z,12.70
2022-11-05T06:10:29.348Z,11.43
2022-11-05T06:12:56.449Z,10.43
2022-11-05T06:15:23.497Z,10.00
2022-11-05T06:17:50.529Z,9.60
2022-11-05T06:20:17.644Z,9.90
2022-11-05T06:22:44.997Z,11.27
2022-11-05T06:25:12.108Z,9.90
2022-11-05T06:27:39.225Z,9.63
2022-11-05T06:30:06.565Z,8.85
2022-11-05T06:32:33.622Z,10.23
2022-11-05T06:35:00.703Z,11.27
2022-11-05T06:37:28.132Z,10.10
2022-11-05T06:39:57.095Z,9.30
2022-11-05T06:42:24.528Z,9.45
2022-11-05T06:44:52.123Z,11.07
2022-11-05T06:47:19.590Z,13.45
2022-11-05T06:49:47.150Z,12.13
2022-11-05T06:52:14.931Z,12.18
2022-11-05T06:54:42.638Z,11.55
2022-11-05T06:57:10.095Z,10.73
2022-11-05T06:59:37.962Z,11.13
2022-11-05T07:02:05.155Z,11.20
2022-11-05T07:04:32.359Z,13.35
2022-11-05T07:07:00.887Z,13.15
2022-11-05T07:09:28.531Z,12.00
2022-11-05T07:11:55.735Z,11.30
2022-11-05T07:14:22.876Z,14.13
2022-11-05T07:16:49.937Z,12.95
2022-11-05T07:19:16.987Z,12.05
2022-11-05T07:21:44.049Z,11.60
2022-11-05T07:24:11.212Z,10.93
2022-11-05T07:26:38.288Z,10.10
2022-11-05T07:29:05.379Z,10.90
2022-11-05T07:31:32.491Z,9.50
2022-11-05T07:33:59.659Z,11.13
2022-11-05T07:36:26.750Z,10.40
2022-11-05T07:38:58.971Z,9.65
2022-11-05T07:41:27.833Z,17.35
2022-11-05T07:43:54.860Z,15.43
2022-11-05T07:46:21.977Z,12.55
2022-11-05T07:48:49.005Z,14.32
2022-11-05T07:51:16.037Z,12.97
2022-11-05T07:53:45.483Z,13.18
2022-11-05T07:56:12.956Z,11.10
2022-11-05T07:58:40.081Z,12.48
2022-11-05T08:01:07.369Z,10.45
2022-11-05T08:03:34.745Z,13.18
2022-11-05T08:06:01.916Z,13.57
2022-11-05T08:08:29.102Z,16.15
2022-11-05T08:11:03.012Z,15.80
2022-11-05T08:13:30.084Z,15.73
2022-11-05T08:15:57.566Z,15.02
2022-11-05T08:18:31.271Z,13.95
2022-11-05T08:20:59.424Z,15.20
2022-11-05T08:23:27.321Z,13.98
2022-11-05T08:25:56.153Z,14.00
2022-11-05T08:28:26.053Z,12.27
2022-11-05T08:30:53.769Z,14.38
2022-11-05T08:33:21.229Z,11.95
2022-11-05T08:35:48.815Z,13.55
2022-11-05T08:38:17.370Z,12.83
2022-11-05T08:40:45.495Z,13.18
2022-11-05T08:43:14.084Z,14.03
2022-11-05T08:45:42.032Z,12.15
2022-11-05T08:48:10.573Z,14.17
2022-11-05T08:50:37.732Z,15.45
2022-11-05T08:53:05.124Z,15.45
2022-11-05T08:55:32.441Z,16.05
2022-11-05T08:58:02.133Z,16.35
2022-11-05T09:00:30.092Z,15.20
2022-11-05T09:03:00.739Z,13.73
2022-11-05T09:05:28.304Z,15.95
2022-11-05T09:08:00.849Z,14.03
2022-11-05T09:10:28.680Z,15.27
2022-11-05T09:12:55.888Z,15.45
2022-11-05T09:15:23.384Z,14.85
2022-11-05T09:17:50.686Z,16.80
2022-11-05T09:20:17.744Z,16.02
2022-11-05T09:22:46.247Z,15.93
2022-11-05T09:25:15.336Z,16.63
2022-11-05T09:27:42.727Z,17.15
2022-11-05T09:30:10.519Z,16.83
2022-11-05T09:32:37.615Z,16.35
2022-11-05T09:35:05.225Z,17.58
2022-11-05T09:37:32.272Z,15.55
2022-11-05T09:39:59.367Z,18.55
2022-11-05T09:42:30.038Z,16.67
2022-11-05T09:44:59.899Z,15.27
2022-11-05T09:47:30.253Z,16.37
2022-11-05T09:49:58.043Z,16.63
2022-11-05T09:52:26.827Z,17.70
2022-11-05T09:54:55.459Z,15.93
2022-11-05T09:57:25.255Z,16.17
2022-11-05T09:59:53.553Z,15.70
2022-11-05T10:02:21.804Z,14.15
2022-11-05T10:04:51.023Z,13.50
2022-11-05T10:07:26.306Z,14.48
2022-11-05T10:09:56.122Z,13.82
2022-11-05T10:12:30.593Z,14.05
2022-11-05T10:15:04.140Z,14.32
2022-11-05T10:17:38.769Z,12.38
2022-11-05T10:20:11.236Z,11.35
2022-11-05T10:22:39.110Z,12.30
2022-11-05T10:25:15.990Z,11.88
2022-11-05T10:27:45.410Z,11.63
2022-11-05T10:30:15.062Z,11.67
2022-11-05T10:32:43.317Z,13.02
2022-11-05T10:35:14.478Z,11.40
2022-11-05T10:37:41.635Z,12.13
2022-11-05T10:40:16.142Z,12.75
2022-11-05T10:42:50.286Z,12.90
2022-11-05T10:45:33.122Z,12.30
2022-11-05T10:48:05.917Z,14.18
2022-11-05T10:50:33.126Z,14.55
2022-11-05T10:53:01.955Z,14.27
2022-11-05T10:55:32.597Z,14.10
2022-11-05T10:58:19.513Z,15.25
2022-11-05T11:00:53.983Z,18.08
2022-11-05T11:03:20.967Z,14.50
2022-11-05T11:05:48.097Z,16.80
2022-11-05T11:08:15.114Z,15.73
2022-11-05T11:10:48.864Z,14.88
2022-11-05T11:13:21.129Z,15.83
2022-11-05T11:15:50.726Z,15.50
2022-11-05T11:18:17.685Z,14.25
2022-11-05T11:20:46.506Z,13.30
2022-11-05T11:23:15.888Z,13.98
2022-11-05T11:25:43.189Z,12.73
2022-11-05T11:28:16.978Z,14.93
2022-11-05T11:30:47.987Z,11.90
2022-11-05T11:33:15.666Z,13.77
2022-11-05T11:35:47.050Z,12.20
2022-11-05T11:38:15.494Z,12.20
2022-11-05T11:40:43.042Z,12.07
2022-11-05T11:43:33.073Z,11.60
2022-11-05T11:46:05.415Z,10.00
2022-11-05T11:48:35.869Z,9.97
2022-11-05T11:51:16.534Z,11.30
2022-11-05T11:53:43.605Z,10.90
2022-11-05T11:56:19.705Z,13.48
2022-11-05T11:58:48.730Z,18.77
2022-11-05T12:01:27.600Z,11.20
2022-11-05T12:03:57.645Z,11.43
2022-11-05T12:06:32.537Z,10.13
2022-11-05T12:09:29.434Z,9.98
2022-11-05T12:12:15.786Z,11.00
2022-11-05T12:14:52.082Z,12.32
2022-11-05T12:17:20.114Z,12.50
2022-11-05T12:20:03.544Z,11.43
2022-11-05T12:22:46.477Z,10.85
2022-11-05T12:25:33.466Z,10.40
2022-11-05T12:28:03.746Z,11.55
2022-11-05T12:30:36.865Z,11.80
2022-11-05T12:33:04.251Z,10.13
2022-11-05T12:35:31.425Z,9.13
2022-11-05T12:37:59.507Z,10.63
2022-11-05T12:40:34.625Z,9.55
2022-11-05T12:43:10.553Z,9.15
2022-11-05T12:45:44.257Z,9.52
2022-11-05T12:48:36.744Z,8.98
2022-11-05T12:51:11.700Z,10.27
2022-11-05T12:53:44.776Z,7.10
2022-11-05T12:56:15.884Z,9.88
2022-11-05T12:58:46.571Z,8.85
2022-11-05T13:01:17.218Z,8.27
2022-11-05T13:04:01.367Z,8.20
2022-11-05T13:06:33.997Z,7.18
2022-11-05T13:09:02.071Z,6.45
2022-11-05T13:11:34.055Z,7.03
2022-11-05T13:14:04.908Z,6.65
2022-11-05T13:16:37.811Z,5.25
2022-11-05T13:19:12.800Z,6.50
2022-11-05T13:21:40.955Z,5.20
2022-11-05T13:24:18.417Z,5.20
2022-11-05T13:26:46.472Z,3.80
2022-11-05T13:29:26.083Z,5.03
2022-11-05T13:31:57.864Z,5.85
2022-11-05T13:34:24.891Z,5.05
2022-11-05T13:37:11.861Z,4.70
2022-11-05T13:39:55.972Z,3.67
2022-11-05T13:42:42.971Z,5.40
2022-11-05T13:45:25.776Z,4.28
2022-11-05T13:48:12.771Z,3.53
2022-11-05T13:50:39.840Z,5.32
2022-11-05T13:53:06.835Z,5.80
2022-11-05T13:55:33.891Z,5.07
2022-11-05T13:58:20.852Z,4.00
2022-11-05T14:00:57.671Z,4.47
2022-11-05T14:03:24.893Z,4.45
2022-11-05T14:05:55.639Z,4.22
2022-11-05T14:08:26.195Z,5.40
2022-11-05T14:11:03.076Z,3.70
2022-11-05T14:13:33.897Z,3.83
2022-11-05T14:16:03.530Z,4.45
2022-11-05T14:18:37.923Z,4.22
2022-11-05T14:21:05.934Z,4.47
2022-11-05T14:23:40.970Z,4.63
2022-11-05T14:26:27.987Z,5.18
2022-11-05T14:29:10.476Z,6.50
2022-11-05T14:34:49.095Z,6.05
2022-11-05T14:37:25.003Z,6.37
2022-11-05T14:39:52.836Z,5.53
2022-11-05T14:42:19.872Z,5.40
2022-11-05T14:45:02.569Z,6.30
2022-11-05T14:47:31.858Z,5.18
2022-11-05T14:50:02.454Z,5.75
2022-11-05T14:52:29.943Z,6.97
2022-11-05T14:54:57.927Z,5.80
2022-11-05T14:57:44.953Z,6.90
2022-11-05T15:00:34.003Z,4.95
2022-11-05T15:03:21.048Z,7.07
2022-11-05T15:05:48.119Z,5.55
2022-11-05T15:08:32.721Z,8.57
2022-11-05T15:11:19.155Z,12.10
2022-11-05T15:14:04.459Z,12.27
2022-11-05T15:16:34.403Z,9.30
2022-11-05T15:19:02.046Z,8.38
2022-11-05T15:21:31.223Z,7.60
2022-11-05T15:23:58.954Z,6.17
2022-11-05T15:26:33.097Z,7.10
2022-11-05T15:29:01.415Z,6.50
2022-11-05T15:31:31.990Z,6.53
2022-11-05T15:34:23.328Z,7.70
2022-11-05T15:36:51.469Z,7.20
2022-11-05T15:39:38.445Z,8.63
2022-11-05T15:42:07.092Z,8.50
2022-11-05T15:44:38.736Z,8.55
2022-11-05T15:47:07.317Z,7.83
2022-11-05T15:49:34.598Z,9.07
2022-11-05T15:52:01.702Z,8.60
2022-11-05T15:54:30.533Z,9.13
2022-11-05T15:56:58.775Z,7.35
2022-11-05T15:59:27.467Z,7.85
2022-11-05T16:01:57.117Z,8.05
2022-11-05T16:04:30.475Z,7.80
2022-11-05T16:06:58.942Z,7.40
2022-11-05T16:09:30.592Z,9.77
2022-11-05T16:12:17.541Z,10.10
2022-11-05T16:14:45.421Z,10.30
2022-11-05T16:17:20.958Z,10.95
2022-11-05T16:19:48.960Z,10.37
2022-11-05T16:22:16.222Z,12.02
2022-11-05T16:24:43.410Z,11.73
2022-11-05T16:27:20.789Z,13.05
2022-11-05T16:29:52.405Z,9.75
2022-11-05T16:32:26.880Z,9.65
2022-11-05T16:34:59.588Z,9.48
2022-11-05T16:37:27.676Z,8.37
2022-11-05T16:39:55.009Z,9.15
2022-11-05T16:42:23.104Z,10.63
2022-11-05T16:44:50.496Z,12.20
2022-11-05T16:47:18.134Z,11.67
2022-11-05T16:49:45.217Z,10.23
2022-11-05T16:52:13.103Z,11.73
2022-11-05T16:54:40.376Z,13.23
2022-11-05T16:57:08.378Z,17.25
2022-11-05T16:59:35.449Z,13.13
2022-11-05T17:02:02.639Z,14.07
2022-11-05T17:04:29.853Z,14.60
2022-11-05T17:06:56.950Z,12.10
2022-11-05T17:09:24.079Z,14.82
2022-11-05T17:11:51.127Z,17.45
2022-11-05T17:14:18.211Z,13.20
2022-11-05T17:16:45.138Z,12.40
2022-11-05T17:19:15.243Z,13.15
2022-11-05T17:21:42.804Z,13.80
2022-11-05T17:24:10.011Z,14.00
2022-11-05T17:26:37.102Z,14.95
2022-11-05T17:29:04.182Z,12.27
2022-11-05T17:31:31.265Z,9.63
2022-11-05T17:33:59.226Z,10.48
2022-11-05T17:36:26.629Z,9.70
2022-11-05T17:38:54.039Z,11.45
2022-11-05T17:41:22.551Z,11.80
2022-11-05T17:43:53.664Z,12.75
2022-11-05T17:46:20.832Z,14.65
2022-11-05T17:48:48.128Z,14.90
2022-11-05T17:51:16.748Z,11.68
2022-11-05T17:53:44.467Z,11.23
2022-11-05T17:56:13.420Z,10.07
2022-11-05T17:58:40.585Z,10.65
2022-11-05T18:01:08.691Z,11.93
2022-11-05T18:03:36.243Z,11.90
2022-11-05T18:06:04.641Z,11.63
2022-11-05T18:08:32.419Z,9.20
2022-11-05T18:10:59.483Z,8.48
2022-11-05T18:13:26.583Z,10.35
2022-11-05T18:15:53.902Z,9.97
2022-11-05T18:18:21.448Z,9.30
2022-11-05T18:20:48.502Z,9.73
2022-11-05T18:23:15.758Z,8.70
2022-11-05T18:25:43.374Z,8.77
2022-11-05T18:28:10.778Z,19.80
2022-11-05T18:30:38.746Z,14.52
2022-11-05T18:33:05.882Z,9.13
2022-11-05T18:35:33.037Z,10.25
2022-11-05T18:38:00.167Z,10.30
2022-11-05T18:40:27.621Z,16.52
2022-11-05T18:42:54.693Z,12.93
2022-11-05T18:45:26.885Z,11.00
2022-11-05T18:47:56.605Z,14.13
2022-11-05T18:50:23.613Z,12.20
2022-11-05T18:52:50.687Z,13.40
2022-11-05T18:55:17.933Z,14.07
2022-11-05T18:57:44.973Z,14.52
2022-11-05T19:00:12.587Z,13.57
2022-11-05T19:02:39.793Z,11.85
2022-11-05T19:05:27.958Z,12.77
2022-11-05T19:07:54.249Z,12.70
2022-11-05T19:10:21.358Z,11.70
2022-11-05T19:12:48.534Z,12.50
2022-11-05T19:15:15.626Z,12.35
2022-11-05T19:17:42.940Z,11.25
2022-11-05T19:20:10.174Z,11.68
2022-11-05T19:22:37.324Z,11.00
2022-11-05T19:25:04.803Z,10.10
2022-11-05T19:27:31.862Z,9.90
2022-11-05T19:29:58.927Z,11.27
2022-11-05T19:32:26.085Z,12.02
2022-11-05T19:34:53.211Z,12.65
2022-11-05T19:37:20.288Z,11.85
2022-11-05T19:39:47.414Z,11.70
2022-11-05T19:42:14.465Z,14.57
2022-11-05T19:44:43.005Z,15.93
2022-11-05T19:47:10.241Z,15.55
2022-11-05T19:49:37.343Z,14.32
2022-11-05T19:52:04.577Z,12.20
2022-11-05T19:54:31.648Z,12.95
2022-11-05T19:56:58.734Z,12.50
2022-11-05T19:59:25.987Z,13.00
2022-11-05T20:01:53.142Z,13.70
2022-11-05T20:04:20.232Z,12.68
2022-11-05T20:06:47.315Z,12.13
2022-11-05T20:09:21.454Z,12.20
2022-11-05T20:11:49.992Z,12.65
2022-11-05T20:14:17.224Z,13.65
2022-11-05T20:16:45.641Z,13.48
2022-11-05T20:19:14.852Z,13.83
2022-11-05T20:21:42.159Z,14.87
2022-11-05T20:24:11.753Z,12.93
2022-11-05T20:26:38.849Z,15.05
2022-11-05T20:29:06.056Z,14.27
2022-11-05T20:31:33.120Z,14.73
2022-11-05T20:34:00.192Z,16.45
2022-11-05T20:36:27.350Z,18.02
2022-11-05T20:38:57.966Z,16.75
2022-11-05T20:41:25.630Z,16.38
2022-11-05T20:43:52.767Z,17.45
2022-11-05T20:46:21.124Z,17.42
2022-11-05T20:48:48.120Z,18.65
2022-11-05T20:51:16.447Z,18.27
2022-11-05T20:53:44.134Z,19.83
2022-11-05T20:56:19.380Z,20.10
2022-11-05T20:58:47.214Z,18.67
2022-11-05T21:01:15.638Z,16.42
2022-11-05T21:03:43.126Z,16.45
2022-11-05T21:06:10.222Z,15.45
2022-11-05T21:08:37.359Z,15.98
2022-11-05T21:11:04.531Z,17.23
2022-11-05T21:13:31.550Z,16.88
2022-11-05T21:15:59.926Z,20.27
2022-11-05T21:18:28.629Z,20.00
2022-11-05T21:20:55.884Z,18.77
2022-11-05T21:23:23.186Z,20.50
2022-11-05T21:25:50.327Z,21.67
2022-11-05T21:28:17.434Z,18.85
2022-11-05T21:30:45.711Z,17.52
2022-11-05T21:33:13.509Z,18.65
2022-11-05T21:35:41.198Z,19.92
2022-11-05T21:38:08.272Z,21.08
2022-11-05T21:40:35.333Z,22.02
2022-11-05T21:43:02.313Z,20.55
2022-11-05T21:45:29.634Z,21.08
2022-11-05T21:47:56.880Z,21.98
2022-11-05T21:50:44.072Z,22.63
2022-11-05T21:53:34.900Z,24.20
2022-11-05T21:56:25.944Z,26.07
2022-11-05T21:59:12.991Z,22.05
2022-11-05T22:01:40.140Z,21.73
2022-11-05T22:04:07.384Z,23.67
2022-11-05T22:06:34.482Z,23.48
2022-11-05T22:09:01.557Z,22.13
2022-11-05T22:11:28.616Z,19.55
2022-11-05T22:13:55.652Z,20.35
2022-11-05T22:16:22.888Z,17.85
2022-11-05T22:18:49.935Z,18.58
2022-11-05T22:21:18.528Z,17.98
2022-11-05T22:23:45.661Z,20.45
2022-11-05T22:26:12.891Z,21.05
2022-11-05T22:28:39.979Z,21.60
2022-11-05T22:31:12.394Z,22.40
2022-11-05T22:33:39.639Z,23.58
2022-11-05T22:36:06.884Z,24.50
2022-11-05T22:38:34.112Z,26.17
2022-11-05T22:41:01.476Z,26.00
2022-11-05T22:43:28.531Z,21.92
2022-11-05T22:45:55.564Z,23.00
2022-11-05T22:48:22.687Z,20.88
2022-11-05T22:50:49.776Z,24.63
2022-11-05T22:53:16.749Z,23.97
2022-11-05T22:55:43.776Z,20.90
2022-11-05T22:58:10.874Z,20.25
2022-11-05T23:00:38.318Z,21.55
2022-11-05T23:03:05.596Z,23.23
2022-11-05T23:05:32.776Z,21.48
2022-11-05T23:08:19.750Z,22.23
2022-11-05T23:11:06.707Z,22.90
2022-11-05T23:13:33.767Z,21.05
2022-11-05T23:16:20.728Z,21.85
2022-11-05T23:19:07.718Z,22.37
2022-11-05T23:21:54.730Z,22.90
2022-11-05T23:24:21.807Z,22.10
2022-11-05T23:26:49.857Z,22.58
2022-11-05T23:29:19.061Z,23.33
2022-11-05T23:32:06.014Z,22.92
2022-11-05T23:34:33.152Z,19.85
2022-11-05T23:37:20.091Z,20.10
2022-11-05T23:39:47.177Z,19.02
2022-11-05T23:42:34.116Z,18.25
2022-11-05T23:45:21.099Z,19.38
2022-11-05T23:48:08.153Z,23.13
2022-11-05T23:50:39.540Z,18.88
2022-11-05T23:53:07.118Z,14.10
2022-11-05T23:55:34.182Z,14.60
2022-11-05T23:58:01.265Z,12.60
